Airport View

Enter AWOS ICAO identifier for current METAR.

KFNL for example

KUCY 271915Z AUTO 21009KT 8SM SCT021 BKN029 BKN035 28/23 A2987 RMK A01

27 May 2017 19:21

Frequency: 135.325

Phone: 731-885-9161

Other Area AWOS: KPHT - KM25 - KDYR - KHZD

TAF KPAH 271732Z 2718/2818 19008KT P6SM VCTS SCT025CB BKN035 FM280100 19007KT 4SM -TSRA BKN025CB FM280700 19005KT P6SM SCT020 BKN040